TimeEST,TemperatureF,Dew PointF,Humidity,Sea Level PressureIn,VisibilityMPH,Wind Direction,Wind SpeedMPH,Gust SpeedMPH,PrecipitationIn,Events,Conditions,WindDirDegrees,DateUTC
12:15 AM,27.0,21.4,79,30.59,10.0,SE,4.6,-,N/A,,Clear,130,2012-11-19 05:15:00
12:35 AM,27.1,21.7,80,30.59,10.0,SE,4.6,-,N/A,,Clear,130,2012-11-19 05:35:00
12:55 AM,27.1,22.1,81,30.58,10.0,ESE,3.5,-,N/A,,Clear,120,2012-11-19 05:55:00
1:15 AM,26.8,21.9,82,30.57,10.0,Calm,Calm,-,N/A,,Clear,0,2012-11-19 06:15:00
1:35 AM,25.7,20.8,82,30.57,10.0,ESE,3.5,-,N/A,,Clear,120,2012-11-19 06:35:00
1:55 AM,24.6,19.9,82,30.57,10.0,SE,3.5,-,N/A,,Clear,130,2012-11-19 06:55:00
2:15 AM,24.6,20.1,83,30.57,10.0,SE,3.5,-,N/A,,Clear,130,2012-11-19 07:15:00
2:35 AM,24.6,20.3,84,30.57,10.0,ESE,3.5,-,N/A,,Clear,120,2012-11-19 07:35:00
2:55 AM,24.6,20.3,84,30.56,10.0,SE,3.5,-,N/A,,Clear,130,2012-11-19 07:55:00
3:15 AM,24.6,20.7,85,30.56,10.0,SE,4.6,-,N/A,,Clear,130,2012-11-19 08:15:00
3:55 AM,24.3,20.5,85,30.55,10.0,SE,3.5,-,N/A,,Clear,130,2012-11-19 08:55:00
4:15 AM,22.1,18.9,87,30.55,10.0,SE,3.5,-,N/A,,Clear,130,2012-11-19 09:15:00
4:35 AM,22.3,19.2,88,30.54,10.0,SE,4.6,-,N/A,,Clear,130,2012-11-19 09:35:00
4:55 AM,22.1,19.0,88,30.54,10.0,SE,4.6,-,N/A,,Clear,130,2012-11-19 09:55:00
5:15 AM,22.1,19.4,89,30.54,10.0,SE,3.5,-,N/A,,Clear,130,2012-11-19 10:15:00
5:35 AM,23.4,20.8,90,30.54,10.0,SE,3.5,-,N/A,,Clear,130,2012-11-19 10:35:00
5:55 AM,22.8,20.3,90,30.54,10.0,Calm,Calm,-,N/A,,Clear,0,2012-11-19 10:55:00
6:15 AM,22.1,19.4,89,30.53,10.0,SE,3.5,-,N/A,,Clear,140,2012-11-19 11:15:00
6:35 AM,22.1,19.8,91,30.53,10.0,SE,3.5,-,N/A,,Clear,130,2012-11-19 11:35:00
6:55 AM,22.1,19.8,91,30.53,10.0,SE,4.6,-,N/A,,Clear,140,2012-11-19 11:55:00
7:15 AM,22.1,19.9,91,30.53,10.0,SE,4.6,-,N/A,,Clear,130,2012-11-19 12:15:00
7:35 AM,22.1,19.8,91,30.53,10.0,SE,4.6,-,N/A,,Clear,130,2012-11-19 12:35:00
8:15 AM,27.1,24.6,90,30.52,10.0,SE,3.5,-,N/A,,Clear,130,2012-11-19 13:15:00
8:55 AM,30.6,25.2,80,30.51,10.0,Calm,Calm,-,N/A,,Clear,0,2012-11-19 13:55:00
9:15 AM,32.0,25.5,77,30.51,10.0,Calm,Calm,-,N/A,,Clear,0,2012-11-19 14:15:00
9:35 AM,34.3,26.4,73,30.50,10.0,Calm,Calm,-,N/A,,Clear,0,2012-11-19 14:35:00
9:55 AM,34.3,25.3,70,30.50,10.0,South,3.5,-,N/A,,Clear,190,2012-11-19 14:55:00
10:15 AM,36.9,26.8,67,30.49,10.0,SSW,3.5,-,N/A,,Clear,200,2012-11-19 15:15:00
10:35 AM,38.1,26.4,63,30.49,10.0,SSW,4.6,-,N/A,,Clear,200,2012-11-19 15:35:00
10:55 AM,39.4,26.2,59,30.48,10.0,SW,5.8,-,N/A,,Clear,220,2012-11-19 15:55:00
11:15 AM,39.9,25.9,57,30.48,10.0,SSW,5.8,-,N/A,,Clear,210,2012-11-19 16:15:00
11:35 AM,40.6,26.1,56,30.47,10.0,SW,8.1,-,N/A,,Clear,220,2012-11-19 16:35:00
11:55 AM,41.9,26.6,55,30.46,10.0,SSW,5.8,-,N/A,,Clear,210,2012-11-19 16:55:00
12:15 PM,42.8,27.5,55,30.45,10.0,SSE,4.6,-,N/A,,Clear,160,2012-11-19 17:15:00
12:35 PM,44.2,28.4,54,30.44,10.0,WSW,5.8,-,N/A,,Clear,250,2012-11-19 17:35:00
12:55 PM,44.4,27.9,52,30.42,10.0,SW,3.5,-,N/A,,Clear,230,2012-11-19 17:55:00
1:15 PM,46.8,28.9,50,30.42,10.0,South,3.5,-,N/A,,Clear,190,2012-11-19 18:15:00
1:35 PM,46.8,29.3,51,30.41,10.0,Calm,Calm,-,N/A,,Clear,0,2012-11-19 18:35:00
1:55 PM,46.8,27.9,48,30.40,10.0,Calm,Calm,-,N/A,,Clear,0,2012-11-19 18:55:00
2:15 PM,46.8,30.9,54,30.40,10.0,Calm,Calm,-,N/A,,Clear,0,2012-11-19 19:15:00
2:35 PM,46.4,30.6,54,30.39,10.0,NNW,3.5,-,N/A,,Clear,330,2012-11-19 19:35:00
2:55 PM,45.5,28.9,52,30.39,10.0,Calm,Calm,-,N/A,,Clear,0,2012-11-19 19:55:00
3:15 PM,45.7,28.9,52,30.38,10.0,Calm,Calm,-,N/A,,Clear,0,2012-11-19 20:15:00
3:35 PM,44.2,27.9,53,30.38,10.0,NNW,3.5,-,N/A,,Clear,330,2012-11-19 20:35:00
3:55 PM,41.9,27.0,55,30.38,10.0,Calm,Calm,-,N/A,,Clear,0,2012-11-19 20:55:00
4:15 PM,39.4,27.5,62,30.37,10.0,Calm,Calm,-,N/A,,Clear,0,2012-11-19 21:15:00
4:35 PM,38.5,27.7,65,30.36,10.0,Calm,Calm,-,N/A,,Clear,0,2012-11-19 21:35:00
4:55 PM,36.9,27.3,68,30.36,10.0,Calm,Calm,-,N/A,,Clear,0,2012-11-19 21:55:00
5:15 PM,34.3,26.6,73,30.36,10.0,Calm,Calm,-,N/A,,Clear,0,2012-11-19 22:15:00
5:35 PM,32.2,26.1,78,30.36,10.0,Calm,Calm,-,N/A,,Clear,0,2012-11-19 22:35:00
5:55 PM,31.8,26.6,81,30.36,10.0,Calm,Calm,-,N/A,,Clear,0,2012-11-19 22:55:00
6:15 PM,29.7,25.5,85,30.35,10.0,Calm,Calm,-,N/A,,Clear,0,2012-11-19 23:15:00
6:35 PM,29.1,25.7,87,30.35,10.0,Calm,Calm,-,N/A,,Clear,0,2012-11-19 23:35:00
7:15 PM,27.1,24.4,90,30.34,10.0,East,3.5,-,N/A,,Clear,80,2012-11-20 00:15:00
7:35 PM,27.1,24.4,90,30.34,10.0,ESE,3.5,-,N/A,,Clear,110,2012-11-20 00:35:00
7:55 PM,27.1,24.4,90,30.33,10.0,Calm,Calm,-,N/A,,Clear,0,2012-11-20 00:55:00
8:15 PM,27.3,24.4,89,30.32,10.0,ESE,5.8,-,N/A,,Clear,110,2012-11-20 01:15:00
8:35 PM,29.8,26.2,86,30.32,10.0,ESE,4.6,-,N/A,,Clear,110,2012-11-20 01:35:00
8:55 PM,32.0,27.5,83,30.31,10.0,ESE,4.6,-,N/A,,Clear,110,2012-11-20 01:55:00
9:15 PM,32.0,27.5,83,30.31,10.0,ESE,4.6,-,N/A,,Clear,110,2012-11-20 02:15:00
9:35 PM,29.1,25.2,85,30.30,10.0,SE,3.5,-,N/A,,Clear,130,2012-11-20 02:35:00
9:55 PM,28.4,24.8,86,30.30,10.0,SE,4.6,-,N/A,,Clear,140,2012-11-20 02:55:00
10:15 PM,27.3,23.9,87,30.29,10.0,ESE,3.5,-,N/A,,Clear,120,2012-11-20 03:15:00
10:35 PM,27.1,23.9,88,30.29,10.0,Calm,Calm,-,N/A,,Clear,0,2012-11-20 03:35:00
10:55 PM,27.1,24.4,90,30.29,10.0,ESE,3.5,-,N/A,,Clear,110,2012-11-20 03:55:00
11:15 PM,27.1,24.4,90,30.28,10.0,SE,3.5,-,N/A,,Clear,130,2012-11-20 04:15:00
11:35 PM,27.1,24.8,91,30.28,10.0,Calm,Calm,-,N/A,,Clear,0,2012-11-20 04:35:00
11:55 PM,27.1,24.8,91,30.28,10.0,ESE,3.5,-,N/A,,Clear,120,2012-11-20 04:55:00